createdAt,value
2019-04-07T00:01:18.524Z,100128.56
2019-04-07T00:03:49.569Z,100123.63
2019-04-07T00:06:21.415Z,100125.52
2019-04-07T00:08:54.512Z,100121.86
2019-04-07T00:11:25.596Z,100121.70
2019-04-07T00:13:58.922Z,100126.41
2019-04-07T00:16:30.936Z,100123.28
2019-04-07T00:19:03.566Z,100122.27
2019-04-07T00:21:34.324Z,100124.75
2019-04-07T00:24:05.813Z,100123.12
2019-04-07T00:26:36.945Z,100126.97
2019-04-07T00:29:08.713Z,100121.87
2019-04-07T00:31:41.553Z,100120.24
2019-04-07T00:34:12.539Z,100116.64
2019-04-07T00:36:43.580Z,100109.98
2019-04-07T00:39:14.846Z,100113.09
2019-04-07T00:41:47.491Z,100116.20
2019-04-07T00:44:19.023Z,100104.83
2019-04-07T00:46:51.003Z,100110.69
2019-04-07T00:49:22.080Z,100108.63
2019-04-07T00:51:53.982Z,100108.69
2019-04-07T00:54:25.395Z,100107.33
2019-04-07T00:56:56.573Z,100103.40
2019-04-07T00:59:27.517Z,100104.16
2019-04-07T01:01:58.222Z,100104.99
2019-04-07T01:04:29.421Z,100105.95
2019-04-07T01:07:00.289Z,100105.81
2019-04-07T01:09:32.638Z,100108.69
2019-04-07T01:12:04.251Z,100104.65
2019-04-07T01:14:35.180Z,100106.91
2019-04-07T01:17:06.168Z,100111.39
2019-04-07T01:19:39.821Z,100100.82
2019-04-07T01:22:13.236Z,100106.06
2019-04-07T01:24:44.234Z,100103.78
2019-04-07T01:27:15.732Z,100106.06
2019-04-07T01:29:49.583Z,100106.85
2019-04-07T01:32:20.341Z,100113.27
2019-04-07T01:34:51.530Z,100117.11
2019-04-07T01:37:22.241Z,100115.07
2019-04-07T01:39:53.740Z,100115.69
2019-04-07T01:42:32.251Z,100119.36
2019-04-07T01:45:21.495Z,100122.43
2019-04-07T01:47:54.122Z,100121.78
2019-04-07T01:50:27.591Z,100124.97
2019-04-07T01:53:05.898Z,100124.83
2019-04-07T01:56:01.820Z,100124.11
2019-04-07T01:58:43.553Z,100127.22
2019-04-07T02:01:18.651Z,100129.91
2019-04-07T02:03:57.285Z,100129.13
2019-04-07T02:06:45.352Z,100124.36
2019-04-07T02:09:18.352Z,100121.74
2019-04-07T02:11:53.981Z,100115.59
2019-04-07T02:14:53.337Z,100118.00
2019-04-07T02:17:32.659Z,100113.46
2019-04-07T02:20:20.955Z,100116.34
2019-04-07T02:22:55.083Z,100117.48
2019-04-07T02:25:39.643Z,100118.66
2019-04-07T02:28:20.859Z,100116.47
2019-04-07T02:30:59.234Z,100117.42
2019-04-07T02:33:43.861Z,100117.95
2019-04-07T02:36:25.544Z,100117.17
2019-04-07T02:39:07.144Z,100112.67
2019-04-07T02:41:46.509Z,100120.09
2019-04-07T02:44:22.092Z,100119.14
2019-04-07T02:47:03.904Z,100116.23
2019-04-07T02:49:36.600Z,100123.14
2019-04-07T02:52:09.177Z,100125.12
2019-04-07T02:54:43.299Z,100120.23
2019-04-07T02:57:19.544Z,100121.30
2019-04-07T03:00:01.356Z,100126.44
2019-04-07T03:02:47.695Z,100123.27
2019-04-07T03:05:33.285Z,100119.58
2019-04-07T03:08:06.151Z,100110.02
2019-04-07T03:10:38.766Z,100121.02
2019-04-07T03:13:11.285Z,100116.88
2019-04-07T03:15:46.339Z,100118.13
2019-04-07T03:18:34.428Z,100122.69
2019-04-07T03:21:11.522Z,100118.54
2019-04-07T03:23:44.155Z,100127.95
2019-04-07T03:26:32.370Z,100120.48
2019-04-07T03:29:08.541Z,100126.53
2019-04-07T03:31:43.151Z,100122.05
2019-04-07T03:34:26.248Z,100121.58
2019-04-07T03:37:18.351Z,100119.73
2019-04-07T03:39:38.392Z,100124.70
2019-04-07T03:42:10.934Z,100122.84
2019-04-07T03:44:43.545Z,100118.41
2019-04-07T03:47:18.502Z,100122.93
2019-04-07T03:50:00.407Z,100124.59
2019-04-07T03:52:35.974Z,100126.91
2019-04-07T03:55:13.062Z,100129.41
2019-04-07T03:57:57.962Z,100126.39
2019-04-07T04:01:08.221Z,100128.62
2019-04-07T04:03:57.152Z,100130.88
2019-04-07T04:06:32.636Z,100129.31
2019-04-07T04:09:11.375Z,100130.59
2019-04-07T04:12:01.299Z,100131.81
2019-04-07T04:14:53.399Z,100136.13
2019-04-07T04:17:25.012Z,100131.77
2019-04-07T04:19:55.977Z,100128.95
2019-04-07T04:22:28.979Z,100137.23
2019-04-07T04:25:00.955Z,100139.64
2019-04-07T04:27:33.302Z,100144.17
2019-04-07T04:30:06.972Z,100146.78
2019-04-07T04:32:37.693Z,100147.64
2019-04-07T04:35:10.814Z,100152.20
2019-04-07T04:37:48.156Z,100152.24
2019-04-07T04:40:14.576Z,100146.56
2019-04-07T04:42:45.260Z,100150.75
2019-04-07T04:45:15.998Z,100154.50
2019-04-07T04:47:46.976Z,100153.69
2019-04-07T04:50:18.267Z,100151.34
2019-04-07T04:52:49.279Z,100156.25
2019-04-07T04:55:20.440Z,100160.65
2019-04-07T04:57:51.290Z,100157.57
2019-04-07T05:00:22.911Z,100156.17
2019-04-07T05:02:53.627Z,100154.24
2019-04-07T05:05:24.494Z,100158.67
2019-04-07T05:08:00.646Z,100158.41
2019-04-07T05:10:27.911Z,100162.08
2019-04-07T05:12:58.934Z,100165.70
2019-04-07T05:15:29.789Z,100166.04
2019-04-07T05:18:00.557Z,100164.67
2019-04-07T05:20:32.034Z,100165.52
2019-04-07T05:23:05.192Z,100174.61
2019-04-07T05:25:36.187Z,100176.56
2019-04-07T05:28:07.497Z,100177.74
2019-04-07T05:30:39.186Z,100179.61
2019-04-07T05:33:09.995Z,100184.40
2019-04-07T05:35:40.656Z,100184.66
2019-04-07T05:38:11.493Z,100189.34
2019-04-07T05:40:42.194Z,100183.37
2019-04-07T05:43:13.105Z,100183.31
2019-04-07T05:45:45.513Z,100187.64
2019-04-07T05:48:19.451Z,100187.44
2019-04-07T05:50:48.893Z,100186.72
2019-04-07T05:53:19.585Z,100191.99
2019-04-07T05:55:53.772Z,100186.98
2019-04-07T05:58:23.322Z,100187.55
2019-04-07T06:00:54.746Z,100191.37
2019-04-07T06:03:25.510Z,100191.22
2019-04-07T06:05:56.279Z,100194.07
2019-04-07T06:08:35.531Z,100199.58
2019-04-07T06:11:02.121Z,100193.78
2019-04-07T06:13:32.984Z,100194.81
2019-04-07T06:16:04.182Z,100186.99
2019-04-07T06:18:35.789Z,100192.14
2019-04-07T06:21:08.007Z,100197.63
2019-04-07T06:23:39.710Z,100197.91
2019-04-07T06:26:11.877Z,100193.83
2019-04-07T06:28:43.887Z,100191.48
2019-04-07T06:31:16.109Z,100194.02
2019-04-07T06:33:47.904Z,100192.70
2019-04-07T06:36:20.233Z,100190.55
2019-04-07T06:38:52.657Z,100197.80
2019-04-07T06:41:27.353Z,100191.62
2019-04-07T06:44:09.530Z,100191.59
2019-04-07T06:46:30.656Z,100187.17
2019-04-07T06:49:04.885Z,100193.57
2019-04-07T06:51:46.178Z,100192.23
2019-04-07T06:54:37.696Z,100195.19
2019-04-07T06:57:26.647Z,100189.48
2019-04-07T07:00:02.430Z,100196.34
2019-04-07T07:02:51.067Z,100194.62
2019-04-07T07:05:26.751Z,100196.27
2019-04-07T07:08:21.045Z,100196.73
2019-04-07T07:11:10.573Z,100192.05
2019-04-07T07:13:45.706Z,100187.78
2019-04-07T07:16:35.002Z,100198.05
2019-04-07T07:19:08.321Z,100197.48
2019-04-07T07:21:57.844Z,100192.53
2019-04-07T07:24:29.876Z,100168.13
2019-04-07T07:27:02.668Z,100168.13
2019-04-07T07:29:33.874Z,100197.58
2019-04-07T07:32:06.328Z,100187.88
2019-04-07T07:34:39.896Z,100200.17
2019-04-07T07:37:10.608Z,100205.07
2019-04-07T07:39:43.366Z,100203.19
2019-04-07T07:42:14.713Z,100198.30
2019-04-07T07:44:46.007Z,100200.55
2019-04-07T07:47:19.767Z,100201.75
2019-04-07T07:49:49.749Z,100201.25
2019-04-07T07:52:21.952Z,100209.14
2019-04-07T07:54:53.624Z,100200.08
2019-04-07T07:57:24.980Z,100202.97
2019-04-07T07:59:56.418Z,100207.41
2019-04-07T08:02:29.057Z,100212.08
2019-04-07T08:05:00.597Z,100209.78
2019-04-07T08:07:31.461Z,100211.69
2019-04-07T08:10:03.064Z,100213.27
2019-04-07T08:12:34.933Z,100210.60
2019-04-07T08:15:08.223Z,100207.70
2019-04-07T08:17:39.222Z,100208.05
2019-04-07T08:20:11.354Z,100212.91
2019-04-07T08:22:44.858Z,100214.81
2019-04-07T08:25:20.381Z,100207.75
2019-04-07T08:27:52.086Z,100224.86
2019-04-07T08:30:23.803Z,100213.23
2019-04-07T08:32:57.630Z,100214.06
2019-04-07T08:35:30.887Z,100209.39
2019-04-07T08:38:01.623Z,100214.77
2019-04-07T08:40:32.809Z,100210.44
2019-04-07T08:43:03.643Z,100212.75
2019-04-07T08:45:35.035Z,100203.89
2019-04-07T08:48:06.466Z,100207.08
2019-04-07T08:50:38.171Z,100225.22
2019-04-07T08:53:13.568Z,100207.28
2019-04-07T08:55:44.477Z,100200.81
2019-04-07T08:58:25.146Z,100201.03
2019-04-07T09:00:53.603Z,100205.52
2019-04-07T09:03:25.212Z,100208.77
2019-04-07T09:05:58.483Z,100210.16
2019-04-07T09:08:30.720Z,100201.80
2019-04-07T09:11:06.065Z,100202.25
2019-04-07T09:13:37.339Z,100208.58
2019-04-07T09:16:14.480Z,100207.27
2019-04-07T09:19:04.961Z,100198.30
2019-04-07T09:21:48.254Z,100202.97
2019-04-07T09:24:38.139Z,100200.62
2019-04-07T09:27:16.998Z,100190.97
2019-04-07T09:29:58.947Z,100194.50
2019-04-07T09:32:44.870Z,100193.84
2019-04-07T09:35:34.199Z,100198.47
2019-04-07T09:38:26.184Z,100201.17
2019-04-07T09:40:58.490Z,100198.11
2019-04-07T09:43:48.519Z,100199.09
2019-04-07T09:46:21.233Z,100195.34
2019-04-07T09:48:55.238Z,100205.73
2019-04-07T09:51:28.106Z,100189.43
2019-04-07T09:54:20.206Z,100192.58
2019-04-07T09:56:51.885Z,100193.59
2019-04-07T09:59:40.793Z,100188.27
2019-04-07T10:02:34.153Z,100191.28
2019-04-07T10:05:11.314Z,100189.04
2019-04-07T10:08:03.240Z,100185.25
2019-04-07T10:10:52.663Z,100188.47
2019-04-07T10:13:40.963Z,100194.83
2019-04-07T10:16:20.038Z,100204.38
2019-04-07T10:18:56.468Z,100198.09
2019-04-07T10:21:30.011Z,100198.63
2019-04-07T10:24:20.597Z,100190.16
2019-04-07T10:26:58.766Z,100182.84
2019-04-07T10:29:37.683Z,100184.06
2019-04-07T10:32:15.996Z,100186.95
2019-04-07T10:35:04.802Z,100190.27
2019-04-07T10:37:55.076Z,100187.22
2019-04-07T10:40:31.047Z,100190.55
2019-04-07T10:43:19.979Z,100190.01
2019-04-07T10:46:09.338Z,100182.95
2019-04-07T10:48:42.298Z,100173.05
2019-04-07T10:51:21.371Z,100187.00
2019-04-07T10:54:08.728Z,100181.69
2019-04-07T10:56:57.604Z,100182.52
2019-04-07T10:59:34.186Z,100172.97
2019-04-07T11:02:10.271Z,100179.61
2019-04-07T11:04:44.005Z,100168.06
2019-04-07T11:07:32.785Z,100174.83
2019-04-07T11:10:15.864Z,100181.27
2019-04-07T11:12:53.769Z,100176.42
2019-04-07T11:15:27.079Z,100173.50
2019-04-07T11:18:00.368Z,100184.73
2019-04-07T11:20:48.877Z,100182.11
2019-04-07T11:23:28.516Z,100164.05
2019-04-07T11:26:00.968Z,100169.82
2019-04-07T11:28:51.458Z,100171.42
2019-04-07T11:31:25.488Z,100167.50
2019-04-07T11:33:58.861Z,100167.96
2019-04-07T11:36:34.341Z,100168.48
2019-04-07T11:39:29.089Z,100169.01
2019-04-07T11:42:10.871Z,100172.45
2019-04-07T11:45:01.441Z,100161.02
2019-04-07T11:47:34.668Z,100162.39
2019-04-07T11:50:11.338Z,100162.27
2019-04-07T11:52:47.262Z,100158.90
2019-04-07T11:55:21.707Z,100158.55
2019-04-07T11:58:11.616Z,100155.39
2019-04-07T12:00:39.107Z,100154.95
2019-04-07T12:03:28.867Z,100157.09
2019-04-07T12:06:07.571Z,100151.23
2019-04-07T12:08:55.714Z,100141.62
2019-04-07T12:11:30.992Z,100152.69
2019-04-07T12:14:20.339Z,100163.24
2019-04-07T12:16:55.307Z,100154.94
2019-04-07T12:19:28.890Z,100151.00
2019-04-07T12:22:13.201Z,100156.22
2019-04-07T12:24:59.245Z,100156.30
2019-04-07T12:27:33.372Z,100149.31
2019-04-07T12:30:08.959Z,100143.70
2019-04-07T12:32:41.887Z,100142.63
2019-04-07T12:35:19.517Z,100137.76
2019-04-07T12:38:04.045Z,100137.48
2019-04-07T12:40:44.372Z,100133.28
2019-04-07T12:43:30.345Z,100144.67
2019-04-07T12:46:19.440Z,100138.77
2019-04-07T12:48:55.416Z,100136.72
2019-04-07T12:51:31.839Z,100136.56
2019-04-07T12:54:08.193Z,100132.75
2019-04-07T12:56:42.354Z,100123.95
2019-04-07T12:59:16.890Z,100130.83
2019-04-07T13:01:51.033Z,100123.08
2019-04-07T13:04:28.492Z,100134.63
2019-04-07T13:07:03.816Z,100124.63
2019-04-07T13:09:53.688Z,100115.09
2019-04-07T13:12:38.826Z,100128.09
2019-04-07T13:15:30.311Z,100116.48
2019-04-07T13:18:08.315Z,100115.41
2019-04-07T13:20:50.321Z,100107.43
2019-04-07T13:23:22.277Z,100106.44
2019-04-07T13:25:56.664Z,100111.17
2019-04-07T13:28:32.663Z,100111.48
2019-04-07T13:31:18.101Z,100109.45
2019-04-07T13:33:51.195Z,100111.50
2019-04-07T13:36:25.241Z,100104.11
2019-04-07T13:38:57.875Z,100106.00
2019-04-07T13:41:43.413Z,100097.87
2019-04-07T13:44:14.998Z,100107.25
2019-04-07T13:46:59.359Z,100107.17
2019-04-07T13:49:33.264Z,100094.85
2019-04-07T13:52:07.556Z,100103.39
2019-04-07T13:54:49.365Z,100096.76
2019-04-07T13:57:27.797Z,100100.59
2019-04-07T14:00:20.138Z,100102.19
2019-04-07T14:03:13.402Z,100098.95
2019-04-07T14:05:46.542Z,100096.47
2019-04-07T14:08:25.796Z,100104.34
2019-04-07T14:11:02.691Z,100098.34
2019-04-07T14:13:40.716Z,100098.53
2019-04-07T14:16:19.609Z,100095.78
2019-04-07T14:18:58.573Z,100097.05
2019-04-07T14:21:46.256Z,100091.78
2019-04-07T14:24:27.890Z,100090.60
2019-04-07T14:27:09.847Z,100103.52
2019-04-07T14:29:49.993Z,100094.55
2019-04-07T14:32:23.157Z,100090.12
2019-04-07T14:35:03.066Z,100095.19
2019-04-07T14:37:37.197Z,100094.09
2019-04-07T14:40:20.414Z,100097.69
2019-04-07T14:43:09.622Z,100090.12
2019-04-07T14:45:49.273Z,100096.08
2019-04-07T14:48:25.362Z,100092.64
2019-04-07T14:51:06.741Z,100094.22
2019-04-07T14:53:39.207Z,100094.72
2019-04-07T14:56:14.389Z,100089.34
2019-04-07T14:58:53.780Z,100080.60
2019-04-07T15:01:25.713Z,100088.25
2019-04-07T15:03:56.720Z,100081.24
2019-04-07T15:06:31.149Z,100083.66
2019-04-07T15:09:17.628Z,100086.28
2019-04-07T15:11:51.192Z,100079.57
2019-04-07T15:14:23.285Z,100082.17
2019-04-07T15:16:54.684Z,100076.47
2019-04-07T15:19:25.444Z,100083.91
2019-04-07T15:21:58.226Z,100082.62
2019-04-07T15:24:35.320Z,100078.05
2019-04-07T15:27:05.910Z,100094.00
2019-04-07T15:29:41.372Z,100085.50
2019-04-07T15:32:10.547Z,100089.27
2019-04-07T15:34:42.538Z,100089.59
2019-04-07T15:37:15.410Z,100079.47
2019-04-07T15:39:47.971Z,100084.98
2019-04-07T15:42:33.094Z,100087.69
2019-04-07T15:44:54.007Z,100084.93
2019-04-07T15:47:26.571Z,100083.31
2019-04-07T15:49:58.140Z,100090.97
2019-04-07T15:52:31.640Z,100095.85
2019-04-07T15:55:06.279Z,100092.98
2019-04-07T15:57:37.245Z,100093.23
2019-04-07T16:00:08.667Z,100099.50
2019-04-07T16:02:42.216Z,100093.30
2019-04-07T16:05:14.784Z,100091.53
2019-04-07T16:07:46.718Z,100094.91
2019-04-07T16:10:21.289Z,100103.34
2019-04-07T16:12:52.776Z,100108.55
2019-04-07T16:15:23.659Z,100110.37
2019-04-07T16:17:56.793Z,100113.70
2019-04-07T16:20:32.463Z,100109.61
2019-04-07T16:23:00.880Z,100107.98
2019-04-07T16:25:32.378Z,100114.50
2019-04-07T16:28:03.762Z,100117.48
2019-04-07T16:30:34.886Z,100117.75
2019-04-07T16:33:06.195Z,100117.42
2019-04-07T16:35:38.344Z,100115.48
2019-04-07T16:38:10.947Z,100120.44
2019-04-07T16:40:42.417Z,100121.59
2019-04-07T16:43:17.348Z,100123.86
2019-04-07T16:45:47.163Z,100121.39
2019-04-07T16:48:19.688Z,100123.23
2019-04-07T16:50:54.747Z,100125.80
2019-04-07T16:53:23.701Z,100130.42
2019-04-07T16:55:55.931Z,100127.91
2019-04-07T16:58:27.611Z,100129.91
2019-04-07T17:00:59.008Z,100136.33
2019-04-07T17:03:31.036Z,100134.69
2019-04-07T17:06:05.299Z,100132.34
2019-04-07T17:08:39.127Z,100131.04
2019-04-07T17:11:10.891Z,100126.64
2019-04-07T17:13:42.972Z,100138.02
2019-04-07T17:16:14.660Z,100130.52
2019-04-07T17:18:47.900Z,100136.42
2019-04-07T17:21:22.428Z,100128.48
2019-04-07T17:23:55.750Z,100135.98
2019-04-07T17:26:27.690Z,100142.19
2019-04-07T17:28:59.723Z,100138.09
2019-04-07T17:31:33.609Z,100141.38
2019-04-07T17:34:09.823Z,100150.30
2019-04-07T17:36:40.939Z,100145.63
2019-04-07T17:39:26.118Z,100148.60
2019-04-07T17:41:59.446Z,100134.27
2019-04-07T17:44:33.968Z,100134.27
2019-04-07T17:47:13.660Z,100154.33
2019-04-07T17:49:50.417Z,100156.76
2019-04-07T17:52:29.102Z,100160.89
2019-04-07T17:55:14.046Z,100163.42
2019-04-07T17:57:49.537Z,100162.06
2019-04-07T18:00:40.928Z,100161.75
2019-04-07T18:03:17.785Z,100172.28
2019-04-07T18:05:59.286Z,100177.70
2019-04-07T18:08:41.811Z,100179.66
2019-04-07T18:11:18.833Z,100180.14
2019-04-07T18:13:57.591Z,100184.27
2019-04-07T18:16:29.177Z,100189.50
2019-04-07T18:19:05.361Z,100199.72
2019-04-07T18:21:44.834Z,100203.25
2019-04-07T18:24:22.735Z,100199.05
2019-04-07T18:26:55.631Z,100203.22
2019-04-07T18:29:30.982Z,100210.53
2019-04-07T18:32:07.546Z,100206.09
2019-04-07T18:34:58.439Z,100211.22
2019-04-07T18:37:48.481Z,100209.66
2019-04-07T18:40:29.521Z,100216.44
2019-04-07T18:43:20.221Z,100214.91
2019-04-07T18:46:11.909Z,100213.81
2019-04-07T18:48:49.074Z,100222.57
2019-04-07T18:51:34.192Z,100225.38
2019-04-07T18:54:26.912Z,100225.49
2019-04-07T18:57:14.070Z,100228.52
2019-04-07T19:00:04.216Z,100230.25
2019-04-07T19:02:46.409Z,100240.41
2019-04-07T19:05:22.242Z,100243.45
2019-04-07T19:08:11.738Z,100238.07
2019-04-07T19:11:10.302Z,100236.56
2019-04-07T19:13:44.962Z,100241.22
2019-04-07T19:16:22.045Z,100242.09
2019-04-07T19:19:10.651Z,100245.52
2019-04-07T19:21:47.123Z,100238.23
2019-04-07T19:24:22.737Z,100244.18
2019-04-07T19:27:10.493Z,100244.15
2019-04-07T19:29:39.150Z,100241.88
2019-04-07T19:32:14.685Z,100240.55
2019-04-07T19:34:49.256Z,100239.42
2019-04-07T19:37:42.350Z,100241.64
2019-04-07T19:40:16.708Z,100241.34
2019-04-07T19:43:10.715Z,100241.39
2019-04-07T19:45:47.265Z,100242.89
2019-04-07T19:48:21.024Z,100234.25
2019-04-07T19:51:03.705Z,100241.34
2019-04-07T19:53:43.237Z,100234.94
2019-04-07T19:56:31.452Z,100243.97
2019-04-07T19:59:13.962Z,100242.75
2019-04-07T20:01:49.129Z,100237.59
2019-04-07T20:04:44.153Z,100241.97
2019-04-07T20:07:31.641Z,100238.97
2019-04-07T20:10:19.957Z,100242.33
2019-04-07T20:12:59.048Z,100238.41
2019-04-07T20:15:49.606Z,100235.42
2019-04-07T20:18:28.291Z,100235.56
2019-04-07T20:21:21.273Z,100236.42
2019-04-07T20:24:07.029Z,100234.70
2019-04-07T20:26:56.749Z,100230.03
2019-04-07T20:29:31.707Z,100230.62
2019-04-07T20:32:11.082Z,100234.94
2019-04-07T20:34:45.047Z,100232.92
2019-04-07T20:37:35.043Z,100239.97
2019-04-07T20:40:19.332Z,100237.86
2019-04-07T20:42:58.283Z,100234.25
2019-04-07T20:45:50.048Z,100227.45
2019-04-07T20:48:25.754Z,100231.05
2019-04-07T20:51:17.690Z,100233.15
2019-04-07T20:53:51.520Z,100233.39
2019-04-07T20:56:36.343Z,100234.84
2019-04-07T20:59:26.936Z,100226.76
2019-04-07T21:02:08.642Z,100236.15
2019-04-07T21:04:52.116Z,100238.94
2019-04-07T21:07:28.336Z,100235.20
2019-04-07T21:10:06.544Z,100240.66
2019-04-07T21:12:52.693Z,100238.98
2019-04-07T21:15:31.508Z,100241.02
2019-04-07T21:18:18.745Z,100243.36
2019-04-07T21:21:04.525Z,100243.05
2019-04-07T21:23:52.966Z,100241.34
2019-04-07T21:26:27.788Z,100241.21
2019-04-07T21:29:08.159Z,100235.72
2019-04-07T21:31:39.815Z,100242.62
2019-04-07T21:34:12.378Z,100248.41
2019-04-07T21:36:57.231Z,100248.67
2019-04-07T21:39:31.823Z,100243.43
2019-04-07T21:42:19.937Z,100250.66
2019-04-07T21:45:07.746Z,100243.60
2019-04-07T21:47:41.812Z,100240.56
2019-04-07T21:50:24.586Z,100244.02
2019-04-07T21:53:03.141Z,100248.20
2019-04-07T21:55:52.086Z,100243.34
2019-04-07T21:58:40.708Z,100239.30
2019-04-07T22:01:16.662Z,100246.61
2019-04-07T22:03:49.750Z,100238.70
2019-04-07T22:06:37.411Z,100239.44
2019-04-07T22:09:20.561Z,100234.33
2019-04-07T22:11:53.674Z,100241.17
2019-04-07T22:14:24.523Z,100248.22
2019-04-07T22:16:55.230Z,100249.52
2019-04-07T22:19:26.122Z,100244.80
2019-04-07T22:21:57.013Z,100248.08
2019-04-07T22:24:32.166Z,100250.60
2019-04-07T22:27:04.289Z,100245.97
2019-04-07T22:29:34.937Z,100248.06
2019-04-07T22:32:07.431Z,100246.20
2019-04-07T22:34:38.388Z,100242.31
2019-04-07T22:37:10.106Z,100254.30
2019-04-07T22:39:41.775Z,100244.93
2019-04-07T22:42:15.256Z,100243.23
2019-04-07T22:44:46.220Z,100241.94
2019-04-07T22:47:19.702Z,100241.23
2019-04-07T22:49:50.964Z,100248.80
2019-04-07T22:52:22.571Z,100243.17
2019-04-07T22:54:54.567Z,100242.81
2019-04-07T22:57:26.007Z,100244.14
2019-04-07T22:59:56.970Z,100243.39
2019-04-07T23:02:27.967Z,100237.81
2019-04-07T23:04:58.807Z,100242.31
2019-04-07T23:07:29.994Z,100247.66
2019-04-07T23:10:01.233Z,100246.42
2019-04-07T23:12:34.083Z,100244.78
2019-04-07T23:15:06.954Z,100237.00
2019-04-07T23:17:37.744Z,100242.00
2019-04-07T23:20:09.989Z,100241.83
2019-04-07T23:22:42.343Z,100240.68
2019-04-07T23:25:13.378Z,100238.25
2019-04-07T23:27:44.302Z,100245.11
2019-04-07T23:30:17.328Z,100247.80
2019-04-07T23:32:48.470Z,100237.45
2019-04-07T23:35:20.114Z,100245.75
2019-04-07T23:37:52.146Z,100247.64
2019-04-07T23:40:23.744Z,100248.66
2019-04-07T23:42:55.357Z,100253.83
2019-04-07T23:45:26.089Z,100251.61
2019-04-07T23:47:56.959Z,100253.47
2019-04-07T23:50:27.915Z,100270.60
2019-04-07T23:53:01.591Z,100268.63
2019-04-07T23:55:32.279Z,100261.31
2019-04-07T23:58:03.051Z,100260.50
